Pagrindinis puslapis
METAR-TAF:

METAR-TAF

Oro uostai :

Adijamanas, Turkija

platuma: 37-43-54N, ilguma: 38-28-08E, Aukštis: 675 m

Dabartinis oras

Ataskaita buvo paskelbta 24 minutes, ne 06:50 UTC
Vėjas 4 kt iš Rytų
Temperatūra 8°C
Drėgmė 42%
Slėgis 1017 hPa
Matomumas 10 km arba daugiau
nėra debesų žemiau 1500 m ir nėra kamuolinių lietaus debesų

METAR: LTCP 020650Z 08004KT CAVOK 08/M04 Q1017

Laikas: 10:14 (07:14 UTC)

Prognozė

Ataskaita buvo paskelbta 2 valandos ir 34 minutes, ne 04:40 UTC
Prognozė galioja nuo 02 metu 06 UTC su 02 metu 15 UTC
Vėjas 15 kt iš Šiaurės
Matomumas 10 km arba daugiau
nėra debesų žemiau 1500 m ir nėra kamuolinių lietaus debesų

TAF: LTCP 020440Z 0206/0215 35015KT CAVOK

Orai ataskaitas ir orų prognozės (METAR, TAF).

turimą stotys yra geltonos ir raudonos taškus žemėlapyje.

Perkelti pele per norėdami pamatyti stoties vardą.

Tada spustelėkite, norėdami matyti oro stebėjimo ir prognozės.

Norėdami pakeisti žemėlapį: spustelėkite ant žalios mygtukų su juodo kryžiaus žemyn,; žalią mygtuką su brūkšneliu, jei norite nutolinti; arba žalių rodyklių gretimoms žemėlapius.


METAR-TAF: